Terminal Aerodrome Forecast
Issued by NWS

Home | Current Version | Previous Version | Text Only | Print | Product List | Glossary Off
Versions: 1 2 3 4 5 6 7 8 9 10 11 12 13 14 15 16 17 18 19

148
FTUS43 KICT 160530
TAFCNU
TAF
KCNU 160530Z 1606/1706 06008KT 1SM -DZ BR OVC003
     FM160800 11008KT 3SM RA BR OVC003 WS020/15050KT
      TEMPO 1608/1612 1 1/2SM RA
     FM161200 12008KT 1SM -DZ BR OVC003 WS020/15050KT
      TEMPO 1612/1615 4SM -RA BR
     FM161500 16009KT P6SM VCSH OVC003
     FM161900 21010KT P6SM OVC008
     FM162000 21010KT P6SM OVC012
     FM170200 26008KT P6SM BKN012=

USA.gov is the U.S. government's official web portal to all federal, state and local government web resources and services.